sensor_id;sensor_type;location;lat;lon;timestamp;temperature;humidity
55369;DHT22;41247;49.736;8.752;2023-12-20T00:00:09;3.90;99.90
55369;DHT22;41247;49.736;8.752;2023-12-20T00:03:50;3.90;99.90
55369;DHT22;41247;49.736;8.752;2023-12-20T00:07:31;3.90;99.90
55369;DHT22;41247;49.736;8.752;2023-12-20T00:11:11;3.80;99.90
55369;DHT22;41247;49.736;8.752;2023-12-20T00:15:02;3.80;99.90
55369;DHT22;41247;49.736;8.752;2023-12-20T00:19:34;3.80;99.90
55369;DHT22;41247;49.736;8.752;2023-12-20T00:29:01;3.80;99.90
55369;DHT22;41247;49.736;8.752;2023-12-20T00:33:08;3.80;99.90
55369;DHT22;41247;49.736;8.752;2023-12-20T00:37:51;3.80;99.90
55369;DHT22;41247;49.736;8.752;2023-12-20T00:46:43;3.70;99.90
55369;DHT22;41247;49.736;8.752;2023-12-20T00:50:28;3.70;99.90
55369;DHT22;41247;49.736;8.752;2023-12-20T00:54:09;3.60;99.90
55369;DHT22;41247;49.736;8.752;2023-12-20T00:57:52;3.60;99.90
55369;DHT22;41247;49.736;8.752;2023-12-20T01:01:32;3.60;99.90
55369;DHT22;41247;49.736;8.752;2023-12-20T01:05:13;3.60;99.90
55369;DHT22;41247;49.736;8.752;2023-12-20T01:08:54;3.60;99.90
55369;DHT22;41247;49.736;8.752;2023-12-20T01:12:36;3.60;99.90
55369;DHT22;41247;49.736;8.752;2023-12-20T01:16:16;3.60;99.90
55369;DHT22;41247;49.736;8.752;2023-12-20T01:19:57;3.60;99.90
55369;DHT22;41247;49.736;8.752;2023-12-20T01:23:38;3.50;99.90
55369;DHT22;41247;49.736;8.752;2023-12-20T01:27:18;3.60;99.90
55369;DHT22;41247;49.736;8.752;2023-12-20T01:30:59;3.50;99.90
55369;DHT22;41247;49.736;8.752;2023-12-20T01:34:39;3.50;99.90
55369;DHT22;41247;49.736;8.752;2023-12-20T01:38:20;3.50;99.90
55369;DHT22;41247;49.736;8.752;2023-12-20T01:42:01;3.50;99.90
55369;DHT22;41247;49.736;8.752;2023-12-20T01:45:41;3.50;99.90
55369;DHT22;41247;49.736;8.752;2023-12-20T01:49:22;3.40;99.90
55369;DHT22;41247;49.736;8.752;2023-12-20T01:53:04;3.40;99.90
55369;DHT22;41247;49.736;8.752;2023-12-20T01:56:46;3.40;99.90
55369;DHT22;41247;49.736;8.752;2023-12-20T02:00:28;3.50;99.90
55369;DHT22;41247;49.736;8.752;2023-12-20T02:04:09;3.50;99.90
55369;DHT22;41247;49.736;8.752;2023-12-20T02:07:50;3.40;99.90
55369;DHT22;41247;49.736;8.752;2023-12-20T02:11:36;3.40;99.90
55369;DHT22;41247;49.736;8.752;2023-12-20T02:15:18;3.40;99.90
55369;DHT22;41247;49.736;8.752;2023-12-20T02:18:58;3.40;99.90
55369;DHT22;41247;49.736;8.752;2023-12-20T02:22:39;3.40;99.90
55369;DHT22;41247;49.736;8.752;2023-12-20T02:26:20;3.50;99.90
55369;DHT22;41247;49.736;8.752;2023-12-20T02:30:00;3.50;99.90
55369;DHT22;41247;49.736;8.752;2023-12-20T02:33:41;3.50;99.90
55369;DHT22;41247;49.736;8.752;2023-12-20T02:37:22;3.50;99.90
55369;DHT22;41247;49.736;8.752;2023-12-20T02:41:03;3.50;99.90
55369;DHT22;41247;49.736;8.752;2023-12-20T02:44:43;3.50;99.90
55369;DHT22;41247;49.736;8.752;2023-12-20T02:48:24;3.50;99.90
55369;DHT22;41247;49.736;8.752;2023-12-20T02:52:04;3.50;99.90
55369;DHT22;41247;49.736;8.752;2023-12-20T02:55:45;3.50;99.90
55369;DHT22;41247;49.736;8.752;2023-12-20T02:59:26;3.50;99.90
55369;DHT22;41247;49.736;8.752;2023-12-20T03:03:06;3.50;99.90
55369;DHT22;41247;49.736;8.752;2023-12-20T03:06:47;3.50;99.90
55369;DHT22;41247;49.736;8.752;2023-12-20T03:10:27;3.50;99.90
55369;DHT22;41247;49.736;8.752;2023-12-20T03:14:08;3.50;99.90
55369;DHT22;41247;49.736;8.752;2023-12-20T03:17:49;3.50;99.90
55369;DHT22;41247;49.736;8.752;2023-12-20T03:21:29;3.50;99.90
55369;DHT22;41247;49.736;8.752;2023-12-20T03:25:10;3.50;99.90
55369;DHT22;41247;49.736;8.752;2023-12-20T03:28:56;3.50;99.90
55369;DHT22;41247;49.736;8.752;2023-12-20T03:32:38;3.50;99.90
55369;DHT22;41247;49.736;8.752;2023-12-20T03:36:19;3.50;99.90
55369;DHT22;41247;49.736;8.752;2023-12-20T03:40:00;3.60;99.90
55369;DHT22;41247;49.736;8.752;2023-12-20T03:43:41;3.60;99.90
55369;DHT22;41247;49.736;8.752;2023-12-20T03:47:21;3.60;99.90
55369;DHT22;41247;49.736;8.752;2023-12-20T03:51:02;3.60;99.90
55369;DHT22;41247;49.736;8.752;2023-12-20T03:54:43;3.60;99.90
55369;DHT22;41247;49.736;8.752;2023-12-20T03:58:23;3.60;99.90
55369;DHT22;41247;49.736;8.752;2023-12-20T04:02:04;3.60;99.90
55369;DHT22;41247;49.736;8.752;2023-12-20T04:05:44;3.60;99.90
55369;DHT22;41247;49.736;8.752;2023-12-20T04:09:25;3.60;99.90
55369;DHT22;41247;49.736;8.752;2023-12-20T04:13:06;3.60;99.90
55369;DHT22;41247;49.736;8.752;2023-12-20T04:16:46;3.60;99.90
55369;DHT22;41247;49.736;8.752;2023-12-20T04:20:27;3.60;99.90
55369;DHT22;41247;49.736;8.752;2023-12-20T04:24:08;3.70;99.90
55369;DHT22;41247;49.736;8.752;2023-12-20T04:27:49;3.70;99.90
55369;DHT22;41247;49.736;8.752;2023-12-20T04:31:30;3.70;99.90
55369;DHT22;41247;49.736;8.752;2023-12-20T04:35:10;3.70;99.90
55369;DHT22;41247;49.736;8.752;2023-12-20T04:38:51;3.70;99.90
55369;DHT22;41247;49.736;8.752;2023-12-20T04:42:31;3.70;99.90
55369;DHT22;41247;49.736;8.752;2023-12-20T04:46:12;3.70;99.90
55369;DHT22;41247;49.736;8.752;2023-12-20T04:49:57;3.70;99.90
55369;DHT22;41247;49.736;8.752;2023-12-20T04:53:38;3.70;99.90
55369;DHT22;41247;49.736;8.752;2023-12-20T04:57:19;3.70;99.90
55369;DHT22;41247;49.736;8.752;2023-12-20T05:00:59;3.70;99.90
55369;DHT22;41247;49.736;8.752;2023-12-20T05:04:40;3.70;99.90
55369;DHT22;41247;49.736;8.752;2023-12-20T05:08:21;3.80;99.90
55369;DHT22;41247;49.736;8.752;2023-12-20T05:12:01;3.70;99.90
55369;DHT22;41247;49.736;8.752;2023-12-20T05:15:42;3.80;99.90
55369;DHT22;41247;49.736;8.752;2023-12-20T05:19:23;3.80;99.90
55369;DHT22;41247;49.736;8.752;2023-12-20T05:23:03;3.80;99.90
55369;DHT22;41247;49.736;8.752;2023-12-20T05:26:44;3.80;99.90
55369;DHT22;41247;49.736;8.752;2023-12-20T05:30:25;3.80;99.90
55369;DHT22;41247;49.736;8.752;2023-12-20T05:34:05;3.80;99.90
55369;DHT22;41247;49.736;8.752;2023-12-20T05:37:46;3.90;99.90
55369;DHT22;41247;49.736;8.752;2023-12-20T05:41:33;3.90;99.90
55369;DHT22;41247;49.736;8.752;2023-12-20T05:45:14;3.90;99.90
55369;DHT22;41247;49.736;8.752;2023-12-20T05:48:57;3.90;99.90
55369;DHT22;41247;49.736;8.752;2023-12-20T05:52:43;3.90;99.90
55369;DHT22;41247;49.736;8.752;2023-12-20T05:56:23;3.90;99.90
55369;DHT22;41247;49.736;8.752;2023-12-20T06:00:05;3.90;99.90
55369;DHT22;41247;49.736;8.752;2023-12-20T06:03:47;3.80;99.90
55369;DHT22;41247;49.736;8.752;2023-12-20T06:07:27;3.80;99.90
55369;DHT22;41247;49.736;8.752;2023-12-20T06:11:08;3.70;99.90
55369;DHT22;41247;49.736;8.752;2023-12-20T06:14:49;3.60;99.90
55369;DHT22;41247;49.736;8.752;2023-12-20T06:18:29;3.50;99.90
55369;DHT22;41247;49.736;8.752;2023-12-20T06:22:10;3.40;99.90
55369;DHT22;41247;49.736;8.752;2023-12-20T06:25:51;3.30;99.90
55369;DHT22;41247;49.736;8.752;2023-12-20T06:29:31;3.30;99.90
55369;DHT22;41247;49.736;8.752;2023-12-20T06:33:12;3.30;99.90
55369;DHT22;41247;49.736;8.752;2023-12-20T06:36:53;3.30;99.90
55369;DHT22;41247;49.736;8.752;2023-12-20T06:40:33;3.30;99.90
55369;DHT22;41247;49.736;8.752;2023-12-20T06:44:14;3.30;99.90
55369;DHT22;41247;49.736;8.752;2023-12-20T06:47:54;3.30;99.90
55369;DHT22;41247;49.736;8.752;2023-12-20T06:51:35;3.30;99.90
55369;DHT22;41247;49.736;8.752;2023-12-20T06:55:16;3.20;99.90
55369;DHT22;41247;49.736;8.752;2023-12-20T06:58:56;3.20;99.90
55369;DHT22;41247;49.736;8.752;2023-12-20T07:02:40;3.10;99.90
55369;DHT22;41247;49.736;8.752;2023-12-20T07:06:20;3.10;99.90
55369;DHT22;41247;49.736;8.752;2023-12-20T07:10:01;3.00;99.90
55369;DHT22;41247;49.736;8.752;2023-12-20T07:13:47;3.00;99.90
55369;DHT22;41247;49.736;8.752;2023-12-20T07:21:53;2.90;99.90
55369;DHT22;41247;49.736;8.752;2023-12-20T07:25:39;2.80;99.90
55369;DHT22;41247;49.736;8.752;2023-12-20T07:51:39;2.90;99.90
55369;DHT22;41247;49.736;8.752;2023-12-20T07:55:24;2.90;99.90
55369;DHT22;41247;49.736;8.752;2023-12-20T07:59:05;2.90;99.90
55369;DHT22;41247;49.736;8.752;2023-12-20T08:02:45;3.00;99.90
55369;DHT22;41247;49.736;8.752;2023-12-20T08:06:26;3.00;99.90
55369;DHT22;41247;49.736;8.752;2023-12-20T08:10:07;3.10;99.90
55369;DHT22;41247;49.736;8.752;2023-12-20T08:13:48;3.10;99.90
55369;DHT22;41247;49.736;8.752;2023-12-20T08:17:28;3.10;99.90
55369;DHT22;41247;49.736;8.752;2023-12-20T08:21:30;3.20;99.90
55369;DHT22;41247;49.736;8.752;2023-12-20T08:25:20;3.20;99.90
55369;DHT22;41247;49.736;8.752;2023-12-20T08:29:06;3.20;99.90
55369;DHT22;41247;49.736;8.752;2023-12-20T08:32:49;3.30;99.90
55369;DHT22;41247;49.736;8.752;2023-12-20T08:36:32;3.30;99.90
55369;DHT22;41247;49.736;8.752;2023-12-20T08:40:30;3.30;99.90
55369;DHT22;41247;49.736;8.752;2023-12-20T08:44:44;3.40;99.90
55369;DHT22;41247;49.736;8.752;2023-12-20T08:48:43;3.40;99.90
55369;DHT22;41247;49.736;8.752;2023-12-20T08:52:27;3.40;99.90
55369;DHT22;41247;49.736;8.752;2023-12-20T08:56:10;3.50;99.90
55369;DHT22;41247;49.736;8.752;2023-12-20T09:05:09;3.50;99.90
55369;DHT22;41247;49.736;8.752;2023-12-20T09:08:59;3.50;99.90
55369;DHT22;41247;49.736;8.752;2023-12-20T09:13:07;3.50;99.90
55369;DHT22;41247;49.736;8.752;2023-12-20T09:22:34;3.60;99.90
55369;DHT22;41247;49.736;8.752;2023-12-20T09:27:19;3.60;99.90
55369;DHT22;41247;49.736;8.752;2023-12-20T09:31:24;3.60;99.90
55369;DHT22;41247;49.736;8.752;2023-12-20T09:35:33;3.60;99.90
55369;DHT22;41247;49.736;8.752;2023-12-20T09:40:07;3.70;99.90
55369;DHT22;41247;49.736;8.752;2023-12-20T09:49:27;3.70;99.90
55369;DHT22;41247;49.736;8.752;2023-12-20T09:53:35;3.70;99.90
55369;DHT22;41247;49.736;8.752;2023-12-20T09:57:17;3.80;99.90
55369;DHT22;41247;49.736;8.752;2023-12-20T10:00:58;3.80;99.90
55369;DHT22;41247;49.736;8.752;2023-12-20T10:04:45;3.90;99.90
55369;DHT22;41247;49.736;8.752;2023-12-20T10:08:29;3.90;99.90
55369;DHT22;41247;49.736;8.752;2023-12-20T10:12:11;3.90;99.90
55369;DHT22;41247;49.736;8.752;2023-12-20T10:15:55;3.90;99.90
55369;DHT22;41247;49.736;8.752;2023-12-20T10:19:37;4.00;99.90
55369;DHT22;41247;49.736;8.752;2023-12-20T10:23:17;3.90;99.90
55369;DHT22;41247;49.736;8.752;2023-12-20T10:27:05;4.00;99.90
55369;DHT22;41247;49.736;8.752;2023-12-20T10:30:46;4.00;99.90
55369;DHT22;41247;49.736;8.752;2023-12-20T10:34:32;4.00;99.90
55369;DHT22;41247;49.736;8.752;2023-12-20T10:38:13;4.00;99.90
55369;DHT22;41247;49.736;8.752;2023-12-20T10:41:55;4.00;99.90
55369;DHT22;41247;49.736;8.752;2023-12-20T10:45:36;4.10;99.90
55369;DHT22;41247;49.736;8.752;2023-12-20T10:49:19;4.10;99.90
55369;DHT22;41247;49.736;8.752;2023-12-20T10:53:00;4.10;99.90
55369;DHT22;41247;49.736;8.752;2023-12-20T10:56:44;4.10;99.90
55369;DHT22;41247;49.736;8.752;2023-12-20T11:00:25;4.20;99.90
55369;DHT22;41247;49.736;8.752;2023-12-20T11:04:09;4.20;99.90
55369;DHT22;41247;49.736;8.752;2023-12-20T11:08:06;4.20;99.90
55369;DHT22;41247;49.736;8.752;2023-12-20T11:12:35;4.20;99.90
55369;DHT22;41247;49.736;8.752;2023-12-20T11:16:20;4.20;99.90
55369;DHT22;41247;49.736;8.752;2023-12-20T11:23:42;4.20;99.90
55369;DHT22;41247;49.736;8.752;2023-12-20T11:27:23;4.20;99.90
55369;DHT22;41247;49.736;8.752;2023-12-20T11:31:05;4.20;99.90
55369;DHT22;41247;49.736;8.752;2023-12-20T11:34:46;4.30;99.90
55369;DHT22;41247;49.736;8.752;2023-12-20T11:38:26;4.30;99.90
55369;DHT22;41247;49.736;8.752;2023-12-20T11:42:07;4.30;99.90
55369;DHT22;41247;49.736;8.752;2023-12-20T11:45:50;4.30;99.90
55369;DHT22;41247;49.736;8.752;2023-12-20T11:49:30;4.20;99.90
55369;DHT22;41247;49.736;8.752;2023-12-20T11:53:11;4.30;99.90
55369;DHT22;41247;49.736;8.752;2023-12-20T11:56:52;4.30;99.90
55369;DHT22;41247;49.736;8.752;2023-12-20T12:00:32;4.30;99.90
55369;DHT22;41247;49.736;8.752;2023-12-20T12:04:14;4.30;99.90
55369;DHT22;41247;49.736;8.752;2023-12-20T12:07:54;4.30;99.90
55369;DHT22;41247;49.736;8.752;2023-12-20T12:11:35;4.30;99.90
55369;DHT22;41247;49.736;8.752;2023-12-20T12:15:16;4.30;99.90
55369;DHT22;41247;49.736;8.752;2023-12-20T12:18:57;4.30;99.90
55369;DHT22;41247;49.736;8.752;2023-12-20T12:22:38;4.30;99.90
55369;DHT22;41247;49.736;8.752;2023-12-20T12:26:19;4.20;99.90
55369;DHT22;41247;49.736;8.752;2023-12-20T12:30:01;4.20;99.90
55369;DHT22;41247;49.736;8.752;2023-12-20T12:33:43;4.20;99.90
55369;DHT22;41247;49.736;8.752;2023-12-20T12:37:23;4.20;99.90
55369;DHT22;41247;49.736;8.752;2023-12-20T12:41:04;4.20;99.90
55369;DHT22;41247;49.736;8.752;2023-12-20T12:44:45;4.20;99.90
55369;DHT22;41247;49.736;8.752;2023-12-20T12:48:25;4.20;99.90
55369;DHT22;41247;49.736;8.752;2023-12-20T12:52:06;4.20;99.90
55369;DHT22;41247;49.736;8.752;2023-12-20T12:55:48;4.20;99.90
55369;DHT22;41247;49.736;8.752;2023-12-20T12:59:28;4.20;99.90
55369;DHT22;41247;49.736;8.752;2023-12-20T13:03:09;4.30;99.90
55369;DHT22;41247;49.736;8.752;2023-12-20T13:06:49;4.40;99.90
55369;DHT22;41247;49.736;8.752;2023-12-20T13:10:30;4.40;99.90
55369;DHT22;41247;49.736;8.752;2023-12-20T13:14:11;4.40;99.90
55369;DHT22;41247;49.736;8.752;2023-12-20T13:17:51;4.40;99.90
55369;DHT22;41247;49.736;8.752;2023-12-20T13:21:32;4.40;99.90
55369;DHT22;41247;49.736;8.752;2023-12-20T13:25:12;4.40;99.90
55369;DHT22;41247;49.736;8.752;2023-12-20T13:28:54;4.40;99.90
55369;DHT22;41247;49.736;8.752;2023-12-20T13:32:35;4.40;99.90
55369;DHT22;41247;49.736;8.752;2023-12-20T13:36:15;4.40;99.90
55369;DHT22;41247;49.736;8.752;2023-12-20T13:39:56;4.50;99.90
55369;DHT22;41247;49.736;8.752;2023-12-20T13:43:36;4.50;99.90
55369;DHT22;41247;49.736;8.752;2023-12-20T13:47:17;4.50;99.90
55369;DHT22;41247;49.736;8.752;2023-12-20T13:50:58;4.50;99.90
55369;DHT22;41247;49.736;8.752;2023-12-20T13:54:38;4.60;99.90
55369;DHT22;41247;49.736;8.752;2023-12-20T13:58:19;4.60;99.90
55369;DHT22;41247;49.736;8.752;2023-12-20T14:01:59;4.60;99.90
55369;DHT22;41247;49.736;8.752;2023-12-20T14:05:40;4.50;99.90
55369;DHT22;41247;49.736;8.752;2023-12-20T14:09:21;4.50;99.90
55369;DHT22;41247;49.736;8.752;2023-12-20T14:13:01;4.50;99.90
55369;DHT22;41247;49.736;8.752;2023-12-20T14:16:42;4.50;99.90
55369;DHT22;41247;49.736;8.752;2023-12-20T14:20:22;4.50;99.90
55369;DHT22;41247;49.736;8.752;2023-12-20T14:24:04;4.50;99.90
55369;DHT22;41247;49.736;8.752;2023-12-20T14:27:45;4.40;99.90
55369;DHT22;41247;49.736;8.752;2023-12-20T14:31:26;4.50;99.90
55369;DHT22;41247;49.736;8.752;2023-12-20T14:35:06;4.40;99.90
55369;DHT22;41247;49.736;8.752;2023-12-20T14:38:47;4.50;99.90
55369;DHT22;41247;49.736;8.752;2023-12-20T14:42:28;4.50;99.90
55369;DHT22;41247;49.736;8.752;2023-12-20T14:46:08;4.50;99.90
55369;DHT22;41247;49.736;8.752;2023-12-20T14:49:49;4.50;99.90
55369;DHT22;41247;49.736;8.752;2023-12-20T14:53:29;4.50;99.90
55369;DHT22;41247;49.736;8.752;2023-12-20T14:57:10;4.50;99.90
55369;DHT22;41247;49.736;8.752;2023-12-20T15:00:51;4.50;99.90
55369;DHT22;41247;49.736;8.752;2023-12-20T15:04:32;4.60;99.90
55369;DHT22;41247;49.736;8.752;2023-12-20T15:08:12;4.50;99.90
55369;DHT22;41247;49.736;8.752;2023-12-20T15:11:53;4.50;99.90
55369;DHT22;41247;49.736;8.752;2023-12-20T15:15:33;4.50;99.90
55369;DHT22;41247;49.736;8.752;2023-12-20T15:19:14;4.50;99.90
55369;DHT22;41247;49.736;8.752;2023-12-20T15:22:55;4.50;99.90
55369;DHT22;41247;49.736;8.752;2023-12-20T15:26:38;4.40;99.90
55369;DHT22;41247;49.736;8.752;2023-12-20T15:30:19;4.40;99.90
55369;DHT22;41247;49.736;8.752;2023-12-20T15:34:01;4.40;99.90
55369;DHT22;41247;49.736;8.752;2023-12-20T15:37:41;4.40;99.90
55369;DHT22;41247;49.736;8.752;2023-12-20T15:41:22;4.40;99.90
55369;DHT22;41247;49.736;8.752;2023-12-20T15:45:04;4.40;99.90
55369;DHT22;41247;49.736;8.752;2023-12-20T15:48:45;4.40;99.90
55369;DHT22;41247;49.736;8.752;2023-12-20T15:52:26;4.40;99.90
55369;DHT22;41247;49.736;8.752;2023-12-20T15:56:07;4.40;99.90
55369;DHT22;41247;49.736;8.752;2023-12-20T15:59:47;4.40;99.90
55369;DHT22;41247;49.736;8.752;2023-12-20T16:03:28;4.40;99.90
55369;DHT22;41247;49.736;8.752;2023-12-20T16:07:08;4.40;99.90
55369;DHT22;41247;49.736;8.752;2023-12-20T16:10:49;4.50;99.90
55369;DHT22;41247;49.736;8.752;2023-12-20T16:14:30;4.50;99.90
55369;DHT22;41247;49.736;8.752;2023-12-20T16:18:10;4.40;99.90
55369;DHT22;41247;49.736;8.752;2023-12-20T16:21:51;4.50;99.90
55369;DHT22;41247;49.736;8.752;2023-12-20T16:25:32;4.50;99.90
55369;DHT22;41247;49.736;8.752;2023-12-20T16:29:13;4.50;99.90
55369;DHT22;41247;49.736;8.752;2023-12-20T16:32:53;4.50;99.90
55369;DHT22;41247;49.736;8.752;2023-12-20T16:36:54;4.50;99.90
55369;DHT22;41247;49.736;8.752;2023-12-20T16:40:35;4.50;99.90
55369;DHT22;41247;49.736;8.752;2023-12-20T16:44:16;4.50;99.90
55369;DHT22;41247;49.736;8.752;2023-12-20T16:47:59;4.50;99.90
55369;DHT22;41247;49.736;8.752;2023-12-20T16:51:39;4.50;99.90
55369;DHT22;41247;49.736;8.752;2023-12-20T16:55:20;4.50;99.90
55369;DHT22;41247;49.736;8.752;2023-12-20T16:59:00;4.50;99.90
55369;DHT22;41247;49.736;8.752;2023-12-20T17:02:41;4.50;99.90
55369;DHT22;41247;49.736;8.752;2023-12-20T17:06:21;4.50;99.90
55369;DHT22;41247;49.736;8.752;2023-12-20T17:10:02;4.50;99.90
55369;DHT22;41247;49.736;8.752;2023-12-20T17:13:43;4.60;99.90
55369;DHT22;41247;49.736;8.752;2023-12-20T17:17:23;4.60;99.90
55369;DHT22;41247;49.736;8.752;2023-12-20T17:21:05;4.60;99.90
55369;DHT22;41247;49.736;8.752;2023-12-20T17:24:46;4.60;99.90
55369;DHT22;41247;49.736;8.752;2023-12-20T17:28:27;4.60;99.90
55369;DHT22;41247;49.736;8.752;2023-12-20T17:32:08;4.60;99.90
55369;DHT22;41247;49.736;8.752;2023-12-20T17:35:48;4.60;99.90
55369;DHT22;41247;49.736;8.752;2023-12-20T17:39:29;4.60;99.90
55369;DHT22;41247;49.736;8.752;2023-12-20T17:43:10;4.60;99.90
55369;DHT22;41247;49.736;8.752;2023-12-20T17:46:50;4.60;99.90
55369;DHT22;41247;49.736;8.752;2023-12-20T17:50:31;4.60;99.90
55369;DHT22;41247;49.736;8.752;2023-12-20T17:54:11;4.60;99.90
55369;DHT22;41247;49.736;8.752;2023-12-20T17:57:52;4.60;99.90
55369;DHT22;41247;49.736;8.752;2023-12-20T18:01:33;4.70;99.90
55369;DHT22;41247;49.736;8.752;2023-12-20T18:05:14;4.60;99.90
55369;DHT22;41247;49.736;8.752;2023-12-20T18:08:55;4.60;99.90
55369;DHT22;41247;49.736;8.752;2023-12-20T18:12:36;4.60;99.90
55369;DHT22;41247;49.736;8.752;2023-12-20T18:16:16;4.70;99.90
55369;DHT22;41247;49.736;8.752;2023-12-20T18:19:57;4.70;99.90
55369;DHT22;41247;49.736;8.752;2023-12-20T18:23:37;4.60;99.90
55369;DHT22;41247;49.736;8.752;2023-12-20T18:27:18;4.60;99.90
55369;DHT22;41247;49.736;8.752;2023-12-20T18:30:59;4.70;99.90
55369;DHT22;41247;49.736;8.752;2023-12-20T18:34:40;4.70;99.90
55369;DHT22;41247;49.736;8.752;2023-12-20T18:38:21;4.70;99.90
55369;DHT22;41247;49.736;8.752;2023-12-20T18:42:01;4.70;99.90
55369;DHT22;41247;49.736;8.752;2023-12-20T18:45:42;4.70;99.90
55369;DHT22;41247;49.736;8.752;2023-12-20T18:49:23;4.70;99.90
55369;DHT22;41247;49.736;8.752;2023-12-20T18:53:04;4.70;99.90
55369;DHT22;41247;49.736;8.752;2023-12-20T18:56:44;4.70;99.90
55369;DHT22;41247;49.736;8.752;2023-12-20T19:00:25;4.70;99.90
55369;DHT22;41247;49.736;8.752;2023-12-20T19:04:05;4.70;99.90
55369;DHT22;41247;49.736;8.752;2023-12-20T19:07:46;4.70;99.90
55369;DHT22;41247;49.736;8.752;2023-12-20T19:11:27;4.80;99.90
55369;DHT22;41247;49.736;8.752;2023-12-20T19:15:07;4.80;99.90
55369;DHT22;41247;49.736;8.752;2023-12-20T19:18:48;4.80;99.90
55369;DHT22;41247;49.736;8.752;2023-12-20T19:22:29;4.80;99.90
55369;DHT22;41247;49.736;8.752;2023-12-20T19:26:10;4.80;99.90
55369;DHT22;41247;49.736;8.752;2023-12-20T19:29:51;4.80;99.90
55369;DHT22;41247;49.736;8.752;2023-12-20T19:33:39;4.80;99.90
55369;DHT22;41247;49.736;8.752;2023-12-20T19:37:19;4.80;99.90
55369;DHT22;41247;49.736;8.752;2023-12-20T19:41:00;4.80;99.90
55369;DHT22;41247;49.736;8.752;2023-12-20T19:44:41;4.80;99.90
55369;DHT22;41247;49.736;8.752;2023-12-20T19:48:21;4.80;99.90
55369;DHT22;41247;49.736;8.752;2023-12-20T19:52:02;4.80;99.90
55369;DHT22;41247;49.736;8.752;2023-12-20T19:55:44;4.90;99.90
55369;DHT22;41247;49.736;8.752;2023-12-20T19:59:25;4.80;99.90
55369;DHT22;41247;49.736;8.752;2023-12-20T20:03:05;4.90;99.90
55369;DHT22;41247;49.736;8.752;2023-12-20T20:06:46;4.90;99.90
55369;DHT22;41247;49.736;8.752;2023-12-20T20:10:26;4.90;99.90
55369;DHT22;41247;49.736;8.752;2023-12-20T20:14:07;4.90;99.90
55369;DHT22;41247;49.736;8.752;2023-12-20T20:17:48;5.00;99.90
55369;DHT22;41247;49.736;8.752;2023-12-20T20:21:28;5.00;99.90
55369;DHT22;41247;49.736;8.752;2023-12-20T20:25:09;5.00;99.90
55369;DHT22;41247;49.736;8.752;2023-12-20T20:28:49;5.00;99.90
55369;DHT22;41247;49.736;8.752;2023-12-20T20:32:30;5.00;99.90
55369;DHT22;41247;49.736;8.752;2023-12-20T20:36:10;5.00;99.90
55369;DHT22;41247;49.736;8.752;2023-12-20T20:39:51;5.00;99.90
55369;DHT22;41247;49.736;8.752;2023-12-20T20:43:32;5.10;99.90
55369;DHT22;41247;49.736;8.752;2023-12-20T20:47:12;5.00;99.90
55369;DHT22;41247;49.736;8.752;2023-12-20T20:50:53;5.10;99.90
55369;DHT22;41247;49.736;8.752;2023-12-20T20:54:33;5.00;99.90
55369;DHT22;41247;49.736;8.752;2023-12-20T20:58:14;5.00;99.90
55369;DHT22;41247;49.736;8.752;2023-12-20T21:01:54;5.00;99.90
55369;DHT22;41247;49.736;8.752;2023-12-20T21:05:35;5.00;99.90
55369;DHT22;41247;49.736;8.752;2023-12-20T21:09:16;5.00;99.90
55369;DHT22;41247;49.736;8.752;2023-12-20T21:12:56;5.00;99.90
55369;DHT22;41247;49.736;8.752;2023-12-20T21:16:37;5.00;99.90
55369;DHT22;41247;49.736;8.752;2023-12-20T21:20:18;4.90;99.90
55369;DHT22;41247;49.736;8.752;2023-12-20T21:23:58;5.00;99.90
55369;DHT22;41247;49.736;8.752;2023-12-20T21:27:39;5.00;99.90
55369;DHT22;41247;49.736;8.752;2023-12-20T21:31:19;4.90;99.90
55369;DHT22;41247;49.736;8.752;2023-12-20T21:35:00;4.90;99.90
55369;DHT22;41247;49.736;8.752;2023-12-20T21:38:40;4.90;99.90
55369;DHT22;41247;49.736;8.752;2023-12-20T21:42:21;4.90;99.90
55369;DHT22;41247;49.736;8.752;2023-12-20T21:46:02;4.90;99.90
55369;DHT22;41247;49.736;8.752;2023-12-20T21:49:42;4.90;99.90
55369;DHT22;41247;49.736;8.752;2023-12-20T21:53:23;4.90;99.90
55369;DHT22;41247;49.736;8.752;2023-12-20T21:57:04;5.00;99.90
55369;DHT22;41247;49.736;8.752;2023-12-20T22:00:44;5.00;99.90
55369;DHT22;41247;49.736;8.752;2023-12-20T22:04:25;5.10;99.90
55369;DHT22;41247;49.736;8.752;2023-12-20T22:08:06;5.10;99.90
55369;DHT22;41247;49.736;8.752;2023-12-20T22:11:47;5.20;99.90
55369;DHT22;41247;49.736;8.752;2023-12-20T22:15:28;5.20;99.90
55369;DHT22;41247;49.736;8.752;2023-12-20T22:19:08;5.20;99.90
55369;DHT22;41247;49.736;8.752;2023-12-20T22:22:49;5.20;99.90
55369;DHT22;41247;49.736;8.752;2023-12-20T22:26:29;5.20;99.90
55369;DHT22;41247;49.736;8.752;2023-12-20T22:30:10;5.20;99.90
55369;DHT22;41247;49.736;8.752;2023-12-20T22:33:51;5.20;99.90
55369;DHT22;41247;49.736;8.752;2023-12-20T22:37:32;5.20;99.90
55369;DHT22;41247;49.736;8.752;2023-12-20T22:41:13;5.20;99.90
55369;DHT22;41247;49.736;8.752;2023-12-20T22:44:53;5.30;99.90
55369;DHT22;41247;49.736;8.752;2023-12-20T22:48:34;5.30;99.90
55369;DHT22;41247;49.736;8.752;2023-12-20T22:52:15;5.20;99.90
55369;DHT22;41247;49.736;8.752;2023-12-20T22:55:55;5.20;99.90
55369;DHT22;41247;49.736;8.752;2023-12-20T22:59:36;5.10;99.90
55369;DHT22;41247;49.736;8.752;2023-12-20T23:03:16;5.10;99.90
55369;DHT22;41247;49.736;8.752;2023-12-20T23:06:57;5.00;99.90
55369;DHT22;41247;49.736;8.752;2023-12-20T23:10:38;5.00;99.90
55369;DHT22;41247;49.736;8.752;2023-12-20T23:14:29;5.00;99.90
55369;DHT22;41247;49.736;8.752;2023-12-20T23:18:09;5.00;99.90
55369;DHT22;41247;49.736;8.752;2023-12-20T23:21:50;4.90;99.90
55369;DHT22;41247;49.736;8.752;2023-12-20T23:25:31;4.90;99.90
55369;DHT22;41247;49.736;8.752;2023-12-20T23:29:11;4.90;99.90
55369;DHT22;41247;49.736;8.752;2023-12-20T23:32:52;4.90;99.90
55369;DHT22;41247;49.736;8.752;2023-12-20T23:36:32;4.90;99.90
55369;DHT22;41247;49.736;8.752;2023-12-20T23:40:13;5.00;99.90
55369;DHT22;41247;49.736;8.752;2023-12-20T23:43:54;5.00;99.90
55369;DHT22;41247;49.736;8.752;2023-12-20T23:47:34;5.00;99.90
55369;DHT22;41247;49.736;8.752;2023-12-20T23:51:15;5.00;99.90
55369;DHT22;41247;49.736;8.752;2023-12-20T23:54:56;5.00;99.90
55369;DHT22;41247;49.736;8.752;2023-12-20T23:58:36;5.00;99.90
